Time;durP1;ratioP1;P1;durP2;ratioP2;P2;SDS_P1;SDS_P2;PMS_P1;PMS_P2;Temp;Humidity;BMP_temperature;BMP_pressure;BME280_temperature;BME280_humidity;BME280_pressure;Samples;Min_cycle;Max_cycle;Signal;HPM_P1;HPM_P2
2023/10/26 00:01:06;;;;;;;8.75;5.32;;;14.60;99.90;;;;;;5054331;28;20025;-40
2023/10/26 00:03:32;;;;;;;9.35;5.82;;;14.80;99.90;;;;;;5050641;28;20519;-39
2023/10/26 00:05:57;;;;;;;7.82;5.38;;;14.60;99.90;;;;;;5031918;28;20041;-39
2023/10/26 00:08:23;;;;;;;9.50;5.45;;;15.00;99.90;;;;;;5048954;28;20029;-38
2023/10/26 00:10:50;;;;;;;8.27;5.63;;;14.70;99.90;;;;;;5048096;28;20179;-40
2023/10/26 00:13:15;;;;;;;9.35;5.97;;;14.70;99.90;;;;;;5052914;28;20044;-39
2023/10/26 00:15:41;;;;;;;9.10;5.90;;;14.10;99.90;;;;;;5050438;28;20033;-40
2023/10/26 00:18:07;;;;;;;8.52;5.38;;;14.60;99.90;;;;;;5048778;28;20041;-41
2023/10/26 00:20:32;;;;;;;9.45;6.22;;;14.60;99.90;;;;;;5045816;28;20033;-39
2023/10/26 00:22:58;;;;;;;8.35;5.82;;;14.60;99.90;;;;;;5048264;28;20033;-41
2023/10/26 00:25:24;;;;;;;8.63;6.00;;;14.40;99.90;;;;;;5044515;28;20037;-40
2023/10/26 00:27:51;;;;;;;9.55;5.72;;;;;;;;;;5075336;28;20106;-40
2023/10/26 00:30:17;;;;;;;11.27;6.78;;;14.70;99.90;;;;;;5046914;28;20084;-40
2023/10/26 00:32:42;;;;;;;9.57;5.97;;;14.50;99.90;;;;;;5046293;28;20037;-40
2023/10/26 00:35:09;;;;;;;9.18;6.55;;;;;;;;;;5046114;28;20028;-40
2023/10/26 00:37:34;;;;;;;10.75;6.47;;;14.30;99.90;;;;;;5052530;28;20045;-41
2023/10/26 00:40:00;;;;;;;13.57;7.60;;;14.60;99.90;;;;;;5050463;28;20086;-40
2023/10/26 00:42:26;;;;;;;10.07;6.70;;;;;;;;;;5043799;28;20115;-41
2023/10/26 00:44:53;;;;;;;11.50;7.35;;;14.50;99.90;;;;;;5041546;28;21079;-40
2023/10/26 00:47:19;;;;;;;13.23;7.75;;;14.60;99.90;;;;;;5047500;28;20044;-40
2023/10/26 00:49:45;;;;;;;11.73;7.65;;;14.50;99.90;;;;;;5045266;28;20041;-41
2023/10/26 00:52:12;;;;;;;11.07;7.45;;;;;;;;;;5048155;28;20117;-40
2023/10/26 00:54:40;;;;;;;10.07;6.68;;;;;;;;;;5052103;28;20563;-41
2023/10/26 00:57:06;;;;;;;12.13;7.50;;;14.50;99.90;;;;;;5046825;28;20064;-41
2023/10/26 00:59:32;;;;;;;10.30;6.53;;;;;;;;;;5045459;28;20445;-41
2023/10/26 01:02:00;;;;;;;10.55;7.60;;;14.50;99.90;;;;;;5047607;28;20037;-39
2023/10/26 01:04:26;;;;;;;12.18;8.00;;;14.70;99.90;;;;;;5046343;28;20116;-41
2023/10/26 01:06:52;;;;;;;15.65;7.60;;;14.50;99.90;;;;;;5047407;28;20045;-39
2023/10/26 01:09:19;;;;;;;11.95;7.38;;;14.30;99.90;;;;;;5046507;28;20037;-41
2023/10/26 01:11:45;;;;;;;17.92;8.60;;;14.50;99.90;;;;;;5047157;28;20052;-40
2023/10/26 01:14:12;;;;;;;12.48;8.50;;;;;;;;;;5046259;28;20112;-40
2023/10/26 01:16:38;;;;;;;14.32;8.93;;;;;;;;;;5052616;28;20052;-41
2023/10/26 01:19:05;;;;;;;12.65;8.32;;;;;;;;;;5050577;28;20043;-40
2023/10/26 01:21:31;;;;;;;14.23;8.88;;;;;;;;;;5048955;28;20071;-41
2023/10/26 01:23:57;;;;;;;14.88;9.52;;;14.60;99.90;;;;;;5044001;28;20456;-41
2023/10/26 01:26:23;;;;;;;13.23;9.60;;;;;;;;;;5047327;28;20045;-38
2023/10/26 01:28:49;;;;;;;15.05;10.07;;;14.60;99.90;;;;;;5050283;28;20095;-41
2023/10/26 01:31:16;;;;;;;15.25;9.93;;;;;;;;;;5041205;28;20037;-40
2023/10/26 01:33:42;;;;;;;16.20;10.45;;;14.50;99.90;;;;;;5023694;28;20080;-40
2023/10/26 01:36:08;;;;;;;14.82;10.55;;;14.40;99.90;;;;;;5035681;28;20041;-41
2023/10/26 01:38:34;;;;;;;14.40;10.82;;;;;;;;;;5050066;28;20032;-40
2023/10/26 01:41:00;;;;;;;15.55;10.90;;;14.60;99.90;;;;;;5043250;28;20123;-40
2023/10/26 01:43:26;;;;;;;17.27;11.38;;;14.40;99.90;;;;;;5041588;28;20117;-40
2023/10/26 01:45:52;;;;;;;13.73;9.77;;;14.60;99.90;;;;;;5038879;28;20243;-41
2023/10/26 01:48:18;;;;;;;15.85;10.35;;;14.40;99.90;;;;;;5041251;28;20042;-40
2023/10/26 01:50:44;;;;;;;16.70;10.55;;;;;;;;;;5047426;28;20515;-40
2023/10/26 01:53:09;;;;;;;15.43;11.50;;;14.50;99.90;;;;;;5047422;28;20037;-39
2023/10/26 01:55:35;;;;;;;14.15;9.93;;;14.50;99.90;;;;;;5049873;28;20445;-39
2023/10/26 01:58:01;;;;;;;15.18;11.27;;;;;;;;;;5045205;28;20094;-38
2023/10/26 02:00:27;;;;;;;17.63;12.30;;;14.40;99.90;;;;;;5043837;28;20029;-41
2023/10/26 02:02:55;;;;;;;16.58;12.35;;;;;;;;;;5055802;28;20045;-40
2023/10/26 02:05:21;;;;;;;17.23;11.93;;;14.40;99.90;;;;;;5044680;28;20086;-39
2023/10/26 02:07:47;;;;;;;17.75;12.13;;;;;;;;;;5049192;28;20045;-41
2023/10/26 02:10:14;;;;;;;16.45;10.93;;;;;;;;;;5049051;28;20185;-40
2023/10/26 02:12:40;;;;;;;15.27;11.40;;;;;;;;;;5045854;28;20408;-40
2023/10/26 02:15:06;;;;;;;18.08;12.25;;;14.50;99.90;;;;;;5045887;28;20037;-41
2023/10/26 02:17:32;;;;;;;20.38;12.48;;;14.40;99.90;;;;;;5047532;28;20048;-41
2023/10/26 02:19:58;;;;;;;20.45;12.02;;;;;;;;;;5045024;28;20041;-41
2023/10/26 02:22:24;;;;;;;14.95;11.70;;;;;;;;;;5048583;28;20065;-39
2023/10/26 02:24:50;;;;;;;16.85;12.15;;;;;;;;;;5046299;28;20071;-41
2023/10/26 02:27:15;;;;;;;15.90;12.30;;;14.60;99.90;;;;;;5041714;28;20478;-41
2023/10/26 02:29:41;;;;;;;15.13;11.32;;;;;;;;;;5041960;28;20037;-40
2023/10/26 02:32:07;;;;;;;18.75;12.85;;;;;;;;;;5031985;28;20049;-41
2023/10/26 02:34:33;;;;;;;20.92;13.82;;;14.50;99.90;;;;;;5037124;28;20524;-41
2023/10/26 02:37:00;;;;;;;17.20;12.35;;;;;;;;;;5035487;28;20133;-40
2023/10/26 02:39:27;;;;;;;15.18;11.35;;;14.50;99.90;;;;;;5045537;28;20447;-41
2023/10/26 02:41:53;;;;;;;14.68;9.63;;;;;;;;;;5038443;28;20064;-41
2023/10/26 02:44:18;;;;;;;19.23;11.80;;;14.50;99.90;;;;;;5037025;28;20041;-41
2023/10/26 02:46:44;;;;;;;16.70;11.55;;;;;;;;;;5036666;28;20118;-40
2023/10/26 02:49:10;;;;;;;16.92;12.70;;;14.40;99.90;;;;;;5040035;28;20125;-41
2023/10/26 02:51:35;;;;;;;16.92;12.23;;;14.40;99.90;;;;;;5048528;28;20036;-40
2023/10/26 02:54:01;;;;;;;16.27;12.68;;;;;;;;;;5050977;28;20041;-39
2023/10/26 02:56:27;;;;;;;16.40;12.65;;;14.50;99.90;;;;;;5051226;28;20401;-41
2023/10/26 02:58:53;;;;;;;17.80;12.85;;;14.40;99.90;;;;;;5049134;28;20049;-39
2023/10/26 03:01:18;;;;;;;17.83;12.27;;;14.80;99.90;;;;;;5039641;28;20045;-40
2023/10/26 03:03:44;;;;;;;16.98;11.82;;;14.20;99.90;;;;;;5041166;28;20087;-40
2023/10/26 03:06:09;;;;;;;15.85;11.35;;;14.50;99.90;;;;;;5035625;28;20036;-39
2023/10/26 03:08:35;;;;;;;16.13;12.38;;;14.40;99.90;;;;;;5048897;28;20555;-41
2023/10/26 03:11:01;;;;;;;17.13;12.20;;;14.90;99.90;;;;;;5051665;28;20041;-42
2023/10/26 03:13:27;;;;;;;18.35;13.77;;;;;;;;;;5045989;28;20148;-41
2023/10/26 03:15:53;;;;;;;16.33;11.55;;;;;;;;;;5039369;28;20534;-39
2023/10/26 03:18:19;;;;;;;15.82;12.30;;;;;;;;;;5039912;28;20044;-40
2023/10/26 03:20:44;;;;;;;14.80;11.77;;;14.50;99.90;;;;;;5043414;28;20052;-41
2023/10/26 03:23:10;;;;;;;16.98;12.48;;;14.30;99.90;;;;;;5043437;28;20033;-39
2023/10/26 03:25:36;;;;;;;17.08;12.38;;;14.40;99.90;;;;;;5046687;28;20447;-40
2023/10/26 03:28:02;;;;;;;16.13;12.52;;;14.40;99.90;;;;;;5045904;28;20049;-40
2023/10/26 03:30:27;;;;;;;16.52;11.60;;;13.90;99.90;;;;;;5045715;28;20381;-40
2023/10/26 03:32:54;;;;;;;15.20;12.38;;;;;;;;;;5045931;28;20273;-40
2023/10/26 03:35:20;;;;;;;14.93;11.80;;;;;;;;;;5051397;28;20041;-41
2023/10/26 03:37:46;;;;;;;14.32;11.30;;;;;;;;;;5051086;28;20043;-40
2023/10/26 03:40:14;;;;;;;13.00;10.13;;;;;;;;;;5049343;28;20415;-40
2023/10/26 03:42:40;;;;;;;14.35;10.05;;;;;;;;;;5048456;28;20060;-40
2023/10/26 03:45:06;;;;;;;13.50;10.00;;;;;;;;;;5050151;28;20040;-38
2023/10/26 03:47:32;;;;;;;10.70;8.52;;;;;;;;;;5050289;28;20073;-39
2023/10/26 03:49:58;;;;;;;10.43;8.23;;;14.20;99.90;;;;;;5051512;28;20461;-41
2023/10/26 03:52:24;;;;;;;11.68;8.73;;;14.30;99.90;;;;;;5049960;28;20112;-39
2023/10/26 03:54:50;;;;;;;10.13;8.13;;;;;;;;;;5043236;28;20038;-40
2023/10/26 03:57:16;;;;;;;10.27;8.32;;;14.30;99.90;;;;;;5049224;28;20389;-40
2023/10/26 03:59:41;;;;;;;9.85;7.53;;;14.20;99.90;;;;;;5048638;28;20036;-41
2023/10/26 04:02:07;;;;;;;9.00;7.30;;;14.30;99.90;;;;;;5049427;28;20133;-40
2023/10/26 04:04:33;;;;;;;9.18;7.47;;;14.20;99.90;;;;;;5044250;28;20075;-41
2023/10/26 04:06:59;;;;;;;10.15;7.40;;;14.20;99.90;;;;;;5043868;28;20113;-38
2023/10/26 04:09:24;;;;;;;8.27;6.57;;;14.30;99.90;;;;;;5043894;28;20040;-40
2023/10/26 04:11:50;;;;;;;8.25;6.47;;;14.20;99.90;;;;;;5031862;28;20045;-40
2023/10/26 04:14:16;;;;;;;8.32;6.70;;;;;;;;;;5043104;28;20476;-41
2023/10/26 04:16:42;;;;;;;8.95;6.78;;;;;;;;;;5037534;28;20113;-41
2023/10/26 04:19:08;;;;;;;8.93;6.53;;;;;;;;;;5042212;28;20046;-41
2023/10/26 04:21:33;;;;;;;8.15;6.50;;;14.20;99.90;;;;;;5043507;28;20056;-38
2023/10/26 04:23:59;;;;;;;7.85;6.43;;;14.20;99.90;;;;;;5045971;28;20044;-39
2023/10/26 04:26:26;;;;;;;7.07;4.82;;;14.20;99.90;;;;;;5040623;28;20045;-41
2023/10/26 04:28:52;;;;;;;6.75;4.90;;;14.10;99.90;;;;;;5037365;28;20041;-40
2023/10/26 04:31:21;;;;;;;7.13;4.50;;;;;;;;;;5041117;28;20047;-40
2023/10/26 04:33:48;;;;;;;14.63;5.97;;;14.20;99.90;;;;;;5037034;28;20037;-38
2023/10/26 04:36:14;;;;;;;42.63;15.30;;;;;;;;;;5049256;28;20040;-39
2023/10/26 04:38:39;;;;;;;38.58;14.65;;;14.20;99.90;;;;;;5036789;28;20041;-41
2023/10/26 04:41:05;;;;;;;48.58;17.15;;;14.40;99.90;;;;;;5043407;28;20591;-41
2023/10/26 04:43:31;;;;;;;51.08;17.15;;;;;;;;;;5072310;28;20112;-40
2023/10/26 04:45:57;;;;;;;36.85;13.98;;;;;;;;;;5041541;28;20460;-40
2023/10/26 04:48:23;;;;;;;47.83;18.98;;;14.50;99.90;;;;;;5045557;28;20129;-41
2023/10/26 04:50:49;;;;;;;45.42;15.90;;;;;;;;;;5044710;28;20104;-40
2023/10/26 04:53:15;;;;;;;36.08;15.25;;;14.40;99.90;;;;;;5044644;28;20040;-40
2023/10/26 04:55:41;;;;;;;26.85;11.90;;;;;;;;;;5047162;28;20431;-40
2023/10/26 04:58:07;;;;;;;16.67;8.35;;;;;;;;;;5036536;28;20540;-40
2023/10/26 05:00:34;;;;;;;19.48;7.63;;;;;;;;;;5037828;28;20451;-41
2023/10/26 05:02:59;;;;;;;18.08;7.10;;;14.60;99.90;;;;;;5035724;28;20048;-38
2023/10/26 05:05:25;;;;;;;13.60;6.35;;;14.60;99.90;;;;;;5041809;28;20053;-41
2023/10/26 05:07:51;;;;;;;12.73;5.90;;;14.60;99.90;;;;;;5042391;28;20489;-41
2023/10/26 05:10:17;;;;;;;11.05;5.35;;;14.80;99.90;;;;;;5039700;28;20045;-40
2023/10/26 05:12:42;;;;;;;17.02;7.90;;;14.90;99.90;;;;;;5040728;28;20040;-41
2023/10/26 05:15:08;;;;;;;15.55;7.35;;;;;;;;;;5038043;28;20033;-41
2023/10/26 05:17:36;;;;;;;11.55;5.93;;;14.80;99.90;;;;;;5034912;28;20049;-41
2023/10/26 05:20:03;;;;;;;10.48;6.03;;;15.60;99.90;;;;;;5039996;28;20037;-40
2023/10/26 05:22:28;;;;;;;7.57;4.38;;;14.90;99.90;;;;;;5034259;28;20037;-41
2023/10/26 05:24:54;;;;;;;8.82;3.92;;;;;;;;;;5036756;28;20123;-40
2023/10/26 05:27:20;;;;;;;36.17;10.95;;;15.00;99.90;;;;;;5036249;28;20044;-38
2023/10/26 05:29:46;;;;;;;31.98;9.77;;;14.90;99.90;;;;;;5043611;28;20064;-39
2023/10/26 05:32:12;;;;;;;19.83;8.15;;;;;;;;;;5040178;28;20121;-40
2023/10/26 05:34:37;;;;;;;24.15;7.53;;;14.70;99.90;;;;;;5047608;28;20120;-40
2023/10/26 05:37:03;;;;;;;16.25;5.60;;;14.80;99.90;;;;;;5048458;28;20065;-40
2023/10/26 05:39:31;;;;;;;13.25;4.85;;;15.00;1.00;;;;;;5048402;28;20033;-41
2023/10/26 05:41:58;;;;;;;10.82;4.95;;;14.80;1.00;;;;;;5047098;28;20098;-40
2023/10/26 05:44:23;;;;;;;11.75;4.85;;;15.00;1.00;;;;;;5037825;28;20043;-39
2023/10/26 05:46:49;;;;;;;9.85;4.90;;;15.00;1.00;;;;;;5035026;28;20038;-39
2023/10/26 05:49:15;;;;;;;20.88;8.85;;;;;;;;;;5044466;28;20389;-40
2023/10/26 05:51:40;;;;;;;19.10;8.65;;;14.90;1.00;;;;;;5042650;28;20039;-39
2023/10/26 05:54:06;;;;;;;20.27;8.68;;;14.90;1.00;;;;;;5043511;28;20040;-41
2023/10/26 05:56:32;;;;;;;16.45;7.00;;;14.80;1.00;;;;;;5044827;28;20037;-41
2023/10/26 05:58:57;;;;;;;19.70;6.90;;;14.90;1.00;;;;;;5045042;28;20033;-40
2023/10/26 06:01:23;;;;;;;11.68;5.53;;;15.00;1.00;;;;;;5027372;28;20028;-39
2023/10/26 06:03:49;;;;;;;10.85;4.63;;;14.80;1.00;;;;;;5041046;28;20619;-38
2023/10/26 06:06:14;;;;;;;9.63;4.28;;;14.80;1.00;;;;;;5043355;28;20107;-38
2023/10/26 06:08:40;;;;;;;7.57;3.65;;;14.80;1.00;;;;;;5037926;28;20041;-39
2023/10/26 06:11:06;;;;;;;7.50;3.75;;;;;;;;;;5037292;28;20115;-41
2023/10/26 06:13:32;;;;;;;8.20;3.92;;;;;;;;;;5039079;28;20470;-41
2023/10/26 06:15:58;;;;;;;8.15;3.60;;;14.80;1.00;;;;;;5038670;28;20120;-41
2023/10/26 06:18:23;;;;;;;9.00;4.65;;;14.90;1.00;;;;;;5033169;28;20159;-41
2023/10/26 06:21:02;;;;;;;6.25;3.95;;;;;;;;;;5042709;28;20083;-40
2023/10/26 06:23:28;;;;;;;8.73;4.25;;;14.80;1.00;;;;;;5041260;28;20048;-38
2023/10/26 06:26:01;;;;;;;6.72;3.38;;;;;;;;;;5040743;28;20040;-40
2023/10/26 06:28:28;;;;;;;7.65;3.95;;;;;;;;;;5040741;28;20043;-40
2023/10/26 06:30:54;;;;;;;5.65;3.20;;;14.70;1.00;;;;;;5039263;28;20044;-40
2023/10/26 06:33:20;;;;;;;7.10;3.75;;;14.80;1.00;;;;;;5074550;28;20041;-40
2023/10/26 06:35:46;;;;;;;11.82;3.80;;;;;;;;;;5046167;28;20032;-39
2023/10/26 06:38:11;;;;;;;6.20;3.28;;;14.90;1.00;;;;;;5051936;28;20036;-40
2023/10/26 06:40:37;;;;;;;5.95;3.33;;;14.70;1.00;;;;;;5044998;28;20059;-41
2023/10/26 06:43:03;;;;;;;6.57;3.42;;;14.70;1.00;;;;;;5057003;28;20124;-41
2023/10/26 06:45:29;;;;;;;6.18;3.13;;;14.70;1.00;;;;;;5064432;28;20510;-38
2023/10/26 06:47:55;;;;;;;6.00;3.10;;;;;;;;;;5048200;28;20037;-41
2023/10/26 06:50:22;;;;;;;7.32;3.50;;;14.60;1.00;;;;;;5047662;28;20044;-41
2023/10/26 06:52:48;;;;;;;6.53;3.53;;;;;;;;;;5041791;28;20085;-40
2023/10/26 06:55:17;;;;;;;6.60;3.33;;;14.80;1.00;;;;;;5046928;28;20041;-38
2023/10/26 06:57:43;;;;;;;5.63;2.80;;;;;;;;;;5047413;28;20234;-41
2023/10/26 07:00:10;;;;;;;7.15;3.25;;;14.70;1.00;;;;;;5044705;28;20045;-39
2023/10/26 07:02:39;;;;;;;6.85;4.03;;;14.70;1.00;;;;;;5045686;28;20041;-40
2023/10/26 07:05:05;;;;;;;6.03;3.22;;;;;;;;;;5049583;28;20059;-41
2023/10/26 07:07:35;;;;;;;6.00;3.53;;;14.20;1.00;;;;;;5041912;28;20067;-41
2023/10/26 07:10:01;;;;;;;6.03;3.25;;;;;;;;;;5048877;28;20087;-40
2023/10/26 07:12:27;;;;;;;6.15;3.50;;;;;;;;;;5042495;28;20037;-40
2023/10/26 07:14:56;;;;;;;7.05;3.63;;;14.70;1.00;;;;;;5049622;28;20048;-41
2023/10/26 07:17:24;;;;;;;6.43;3.70;;;;;;;;;;5036920;28;20042;-41
2023/10/26 07:19:50;;;;;;;6.00;3.40;;;14.60;1.00;;;;;;5050336;28;20079;-38
2023/10/26 07:22:16;;;;;;;5.82;3.40;;;14.70;1.00;;;;;;5054218;28;20094;-40
2023/10/26 07:24:42;;;;;;;7.00;3.78;;;;;;;;;;5043913;28;20073;-42
2023/10/26 07:27:08;;;;;;;5.80;3.40;;;;;;;;;;5053745;28;20045;-40
2023/10/26 07:29:34;;;;;;;6.13;3.47;;;;;;;;;;5044602;28;20510;-40
2023/10/26 07:32:00;;;;;;;6.10;3.30;;;14.60;1.00;;;;;;5053399;28;20459;-41
2023/10/26 07:34:25;;;;;;;6.05;3.45;;;14.60;1.00;;;;;;5041548;28;20044;-40
2023/10/26 07:36:52;;;;;;;6.57;3.83;;;;;;;;;;5041440;28;20040;-41
2023/10/26 07:39:18;;;;;;;6.95;4.30;;;;;;;;;;5041780;28;20416;-40
2023/10/26 07:41:43;;;;;;;5.97;3.70;;;14.40;1.00;;;;;;5045304;28;20037;-40
2023/10/26 07:44:09;;;;;;;6.95;4.32;;;14.60;1.00;;;;;;5048945;28;20480;-40
2023/10/26 07:46:35;;;;;;;7.72;4.30;;;14.40;1.00;;;;;;5040355;28;20614;-40
2023/10/26 07:49:01;;;;;;;6.75;3.63;;;14.50;1.00;;;;;;5044749;28;20041;-41
2023/10/26 07:51:27;;;;;;;5.63;3.42;;;;;;;;;;5036218;28;20107;-40
2023/10/26 07:53:53;;;;;;;7.68;4.00;;;14.70;1.00;;;;;;5043068;28;20142;-41
2023/10/26 07:56:19;;;;;;;6.20;3.85;;;14.40;1.00;;;;;;5053547;28;20444;-40
2023/10/26 07:58:44;;;;;;;5.78;3.70;;;14.60;1.00;;;;;;5056362;28;20032;-39
2023/10/26 08:01:10;;;;;;;7.30;4.32;;;14.40;1.00;;;;;;5050619;28;20041;-41
2023/10/26 08:03:36;;;;;;;6.75;3.97;;;;;;;;;;5057560;28;20378;-40
2023/10/26 08:06:02;;;;;;;8.30;4.50;;;;;;;;;;5062234;28;20500;-41
2023/10/26 08:08:29;;;;;;;6.53;4.25;;;;;;;;;;5052144;28;20238;-42
2023/10/26 08:11:07;;;;;;;6.97;4.03;;;;;;;;;;5048656;28;20045;-41
2023/10/26 08:13:33;;;;;;;7.43;4.50;;;14.50;1.00;;;;;;5063919;28;20045;-41
2023/10/26 08:16:00;;;;;;;7.88;4.28;;;;;;;;;;5054068;28;20040;-37
2023/10/26 08:18:26;;;;;;;6.90;4.43;;;14.40;1.00;;;;;;5057825;28;20053;-40
2023/10/26 08:20:52;;;;;;;7.50;4.75;;;14.40;1.00;;;;;;5054044;28;20487;-38
2023/10/26 08:23:18;;;;;;;7.45;4.78;;;14.50;1.00;;;;;;5051786;28;20041;-39
2023/10/26 08:25:44;;;;;;;8.20;4.35;;;;;;;;;;5049236;28;20037;-41
2023/10/26 08:28:10;;;;;;;7.78;4.57;;;14.60;1.00;;;;;;5048101;28;20129;-40
2023/10/26 08:30:37;;;;;;;7.40;4.45;;;;;;;;;;5051349;28;20107;-41
2023/10/26 08:33:04;;;;;;;7.10;4.63;;;14.50;1.00;;;;;;5045429;28;20443;-40
2023/10/26 08:35:33;;;;;;;6.88;4.25;;;14.90;1.00;;;;;;5058033;28;20075;-40
2023/10/26 08:37:58;;;;;;;6.72;4.20;;;14.40;1.00;;;;;;5049458;28;20120;-41
2023/10/26 08:40:24;;;;;;;6.90;4.30;;;15.00;1.00;;;;;;5057778;28;20124;-41
2023/10/26 08:42:51;;;;;;;8.00;4.65;;;;;;;;;;5052427;28;20048;-41
2023/10/26 08:45:27;;;;;;;7.40;4.68;;;;;;;;;;5058371;28;20051;-40
2023/10/26 08:47:55;;;;;;;7.55;5.00;;;;;;;;;;5051158;28;20053;-41
2023/10/26 08:50:22;;;;;;;7.85;4.25;;;;;;;;;;5059171;28;20064;-40
2023/10/26 08:52:49;;;;;;;7.60;4.43;;;;;;;;;;5051361;28;20047;-40
2023/10/26 08:55:15;;;;;;;7.07;3.97;;;;;;;;;;5050902;28;20060;-41
2023/10/26 08:57:51;;;;;;;7.32;4.63;;;14.30;1.00;;;;;;5055564;28;20080;-40
2023/10/26 09:00:18;;;;;;;7.72;4.85;;;14.70;1.00;;;;;;5048617;28;20033;-40
2023/10/26 09:02:45;;;;;;;8.43;4.93;;;;;;;;;;5050584;28;20047;-40
2023/10/26 09:05:11;;;;;;;7.28;4.15;;;;;;;;;;5053806;28;20044;-39
2023/10/26 09:07:38;;;;;;;7.82;5.10;;;;;;;;;;5049024;28;20037;-40
2023/10/26 09:10:04;;;;;;;7.80;4.78;;;14.70;1.00;;;;;;5047027;28;20043;-40
2023/10/26 09:12:30;;;;;;;8.25;5.05;;;;;;;;;;5045283;28;20024;-40
2023/10/26 09:15:06;;;;;;;7.50;4.80;;;15.10;1.00;;;;;;5051004;28;20037;-39
2023/10/26 09:17:32;;;;;;;7.55;5.18;;;14.80;1.00;;;;;;5038359;28;20106;-41
2023/10/26 09:19:58;;;;;;;7.88;5.07;;;;;;;;;;5043308;28;20072;-40
2023/10/26 09:22:37;;;;;;;8.38;5.53;;;14.90;1.00;;;;;;5049181;28;20046;-40
2023/10/26 09:25:13;;;;;;;8.25;4.85;;;;;;;;;;5041486;28;20034;-41
2023/10/26 09:27:40;;;;;;;9.20;4.88;;;14.90;1.00;;;;;;5048756;28;20124;-39
2023/10/26 09:30:20;;;;;;;7.45;4.78;;;14.70;1.00;;;;;;5050706;28;20542;-40
2023/10/26 09:32:46;;;;;;;8.00;4.90;;;14.80;1.00;;;;;;5076158;28;20119;-40
2023/10/26 09:35:24;;;;;;;7.15;4.90;;;;;;;;;;5045350;28;20471;-40
2023/10/26 09:37:50;;;;;;;7.78;4.78;;;;;;;;;;5045648;28;20407;-40
2023/10/26 09:40:16;;;;;;;8.05;4.72;;;14.40;1.00;;;;;;5044615;28;20041;-39
2023/10/26 09:42:42;;;;;;;8.52;4.93;;;14.70;1.00;;;;;;5045018;28;20051;-40
2023/10/26 09:45:08;;;;;;;8.20;5.22;;;14.80;1.00;;;;;;5045258;28;20080;-39
2023/10/26 09:47:36;;;;;;;7.72;4.90;;;14.50;1.00;;;;;;5047454;28;20103;-41
2023/10/26 09:50:02;;;;;;;8.13;4.70;;;;;;;;;;5043768;28;20068;-40
2023/10/26 09:52:28;;;;;;;8.52;5.10;;;;;;;;;;5051392;28;20037;-39
2023/10/26 09:54:54;;;;;;;8.32;5.13;;;;;;;;;;5052381;28;20045;-39
2023/10/26 09:57:24;;;;;;;7.57;5.28;;;;;;;;;;5047012;28;20033;-41
2023/10/26 09:59:53;;;;;;;8.23;5.68;;;14.90;1.00;;;;;;5045458;28;20040;-40
2023/10/26 10:02:19;;;;;;;7.20;5.28;;;14.60;1.00;;;;;;5076774;28;20049;-40
2023/10/26 10:04:45;;;;;;;7.40;4.30;;;14.90;1.00;;;;;;5049577;28;20584;-40
2023/10/26 10:07:38;;;;;;;8.55;5.30;;;14.60;1.00;;;;;;5047117;28;20045;-39
2023/10/26 10:10:05;;;;;;;8.23;5.53;;;;;;;;;;5054685;28;20036;-40
2023/10/26 10:12:32;;;;;;;7.30;4.85;;;;;;;;;;5040267;28;20041;-38
2023/10/26 10:15:01;;;;;;;8.00;5.40;;;14.60;1.00;;;;;;5059924;28;20079;-40
2023/10/26 10:17:45;;;;;;;8.40;5.50;;;15.60;1.00;;;;;;5050717;28;20049;-40
2023/10/26 10:20:17;;;;;;;9.10;5.33;;;;;;;;;;5044753;28;20475;-39
2023/10/26 10:22:45;;;;;;;7.72;5.22;;;15.00;1.00;;;;;;5058182;28;20397;-40
2023/10/26 10:25:12;;;;;;;8.38;5.63;;;14.70;1.00;;;;;;5049898;28;20036;-41
2023/10/26 10:27:38;;;;;;;9.05;6.03;;;14.90;1.00;;;;;;5052737;28;20075;-40
2023/10/26 10:30:06;;;;;;;8.23;5.65;;;;;;;;;;5054419;28;20036;-38
2023/10/26 10:35:11;;;;;;;9.63;6.65;;;;;;;;;;5049018;28;20048;-40
2023/10/26 10:37:37;;;;;;;8.02;5.40;;;;;;;;;;5050235;28;20369;-38
2023/10/26 10:40:21;;;;;;;8.70;5.95;;;;;;;;;;5044523;28;20127;-41
2023/10/26 10:42:48;;;;;;;10.57;6.13;;;;;;;;;;5046576;28;20571;-39
2023/10/26 10:45:15;;;;;;;9.45;6.53;;;15.20;1.00;;;;;;5054946;28;20385;-39
2023/10/26 10:47:41;;;;;;;10.30;5.55;;;;;;;;;;5049586;28;20045;-40
2023/10/26 10:50:14;;;;;;;10.20;6.05;;;;;;;;;;5073805;28;20072;-40
2023/10/26 10:52:41;;;;;;;10.70;6.28;;;14.70;1.00;;;;;;5048976;28;20032;-40
2023/10/26 10:55:07;;;;;;;8.30;5.50;;;14.50;1.00;;;;;;5045822;28;20064;-41
2023/10/26 10:57:33;;;;;;;9.30;6.47;;;14.80;1.00;;;;;;5056410;28;20037;-39
2023/10/26 10:59:58;;;;;;;9.63;5.88;;;14.70;1.00;;;;;;5051713;28;20037;-40
2023/10/26 11:02:24;;;;;;;8.70;6.03;;;15.20;1.00;;;;;;5042048;28;20052;-40
2023/10/26 11:04:55;;;;;;;9.73;5.90;;;15.30;1.00;;;;;;5055395;28;20037;-40
2023/10/26 11:07:25;;;;;;;9.55;5.97;;;15.30;1.00;;;;;;5051634;28;20030;-40
2023/10/26 11:09:55;;;;;;;8.77;6.40;;;;;;;;;;5048571;28;20057;-41
2023/10/26 11:12:21;;;;;;;9.55;5.60;;;;;;;;;;5045653;28;20124;-40
2023/10/26 11:14:51;;;;;;;8.88;5.47;;;14.40;1.00;;;;;;5056714;28;20107;-40
2023/10/26 11:17:21;;;;;;;8.63;5.55;;;14.90;1.00;;;;;;5043921;28;20132;-39
2023/10/26 11:19:47;;;;;;;8.43;5.90;;;;;;;;;;5055834;28;20041;-40
2023/10/26 11:22:18;;;;;;;8.43;5.60;;;;;;;;;;5045581;28;20508;-39
2023/10/26 11:24:44;;;;;;;9.25;6.15;;;;;;;;;;5051331;28;20040;-40
2023/10/26 11:27:14;;;;;;;8.35;5.55;;;;;;;;;;5047343;28;20037;-39
2023/10/26 11:29:41;;;;;;;8.15;5.60;;;15.10;1.00;;;;;;5051152;28;20069;-39
2023/10/26 11:32:20;;;;;;;8.30;5.38;;;;;;;;;;5059292;28;20078;-41
2023/10/26 11:35:09;;;;;;;9.10;5.80;;;15.50;1.00;;;;;;5050993;28;20460;-40
2023/10/26 11:37:36;;;;;;;8.75;5.90;;;;;;;;;;5050517;28;20029;-38
2023/10/26 11:40:07;;;;;;;8.55;5.47;;;14.80;1.00;;;;;;5047911;28;20046;-39
2023/10/26 11:42:53;;;;;;;9.95;6.00;;;;;;;;;;5037495;28;20072;-40
2023/10/26 11:45:21;;;;;;;7.22;5.00;;;;;;;;;;5047928;28;20037;-40
2023/10/26 11:47:54;;;;;;;8.57;5.15;;;15.80;1.00;;;;;;5047576;28;20130;-39
2023/10/26 11:50:24;;;;;;;9.23;5.63;;;15.30;1.00;;;;;;5043020;28;20046;-40
2023/10/26 11:52:51;;;;;;;8.98;5.20;;;;;;;;;;5048506;28;20283;-39
2023/10/26 11:55:18;;;;;;;9.82;5.40;;;;;;;;;;5046674;28;20587;-40
2023/10/26 11:57:45;;;;;;;8.73;5.22;;;14.80;1.00;;;;;;5051657;28;20089;-40
2023/10/26 12:00:11;;;;;;;9.20;5.88;;;;;;;;;;5053744;28;20353;-40
2023/10/26 12:02:38;;;;;;;8.10;5.82;;;;;;;;;;5050512;28;20049;-40
2023/10/26 12:05:04;;;;;;;9.02;5.22;;;15.30;1.00;;;;;;5052207;28;20032;-40
2023/10/26 12:07:31;;;;;;;9.32;5.68;;;;;;;;;;5049653;28;20550;-39
2023/10/26 12:09:57;;;;;;;8.70;5.53;;;15.30;1.00;;;;;;5042377;28;20460;-40
2023/10/26 12:12:22;;;;;;;8.38;4.85;;;15.20;1.00;;;;;;5030736;28;20076;-39
2023/10/26 12:14:48;;;;;;;8.23;4.95;;;15.10;1.00;;;;;;5045814;28;20033;-40
2023/10/26 12:17:14;;;;;;;7.57;4.95;;;15.10;1.00;;;;;;5044125;28;20080;-40
2023/10/26 12:19:40;;;;;;;8.07;5.10;;;;;;;;;;5046937;28;20045;-40
2023/10/26 12:22:05;;;;;;;9.32;5.32;;;15.00;1.00;;;;;;5046530;28;20043;-39
2023/10/26 12:24:32;;;;;;;7.82;4.93;;;14.90;1.00;;;;;;5039525;28;20405;-40
2023/10/26 12:26:59;;;;;;;6.57;4.07;;;;;;;;;;5049299;28;20059;-39
2023/10/26 12:29:25;;;;;;;7.18;4.28;;;15.40;1.00;;;;;;5050989;28;20029;-40
2023/10/26 12:31:52;;;;;;;6.75;4.57;;;15.50;1.00;;;;;;5049511;28;20469;-40
2023/10/26 12:34:19;;;;;;;7.00;4.25;;;15.40;1.00;;;;;;5047774;28;20127;-40
2023/10/26 12:36:45;;;;;;;7.10;4.30;;;15.80;1.00;;;;;;5051213;28;20041;-40
2023/10/26 12:39:11;;;;;;;7.00;4.05;;;16.50;1.00;;;;;;5050457;28;20036;-39
2023/10/26 12:41:37;;;;;;;7.70;4.55;;;;;;;;;;5050208;28;20124;-40
2023/10/26 12:44:04;;;;;;;7.95;4.43;;;;;;;;;;5043816;28;20064;-40
2023/10/26 12:46:29;;;;;;;6.65;3.95;;;15.30;1.00;;;;;;5051343;28;20401;-39
2023/10/26 12:48:56;;;;;;;6.82;4.20;;;;;;;;;;5047679;28;20042;-40
2023/10/26 12:51:21;;;;;;;7.28;4.15;;;16.20;1.00;;;;;;5049513;28;20038;-40
2023/10/26 12:53:47;;;;;;;6.47;4.50;;;15.20;1.00;;;;;;5043678;28;20052;-37
2023/10/26 12:56:12;;;;;;;6.70;3.75;;;15.40;1.00;;;;;;5044319;28;20367;-39
2023/10/26 12:58:38;;;;;;;6.80;4.38;;;15.70;1.00;;;;;;5042444;28;20378;-40
2023/10/26 13:01:04;;;;;;;6.40;3.88;;;;;;;;;;5051606;28;20127;-39
2023/10/26 13:03:30;;;;;;;6.47;3.97;;;15.20;1.00;;;;;;5049947;28;20044;-40
2023/10/26 13:05:55;;;;;;;6.53;4.10;;;15.70;1.00;;;;;;5043016;28;20040;-41
2023/10/26 13:08:21;;;;;;;7.30;4.70;;;15.40;1.00;;;;;;5045639;28;20056;-39
2023/10/26 13:10:46;;;;;;;6.57;4.15;;;15.20;1.00;;;;;;5045820;28;20401;-39
2023/10/26 13:13:12;;;;;;;7.10;4.60;;;15.40;1.00;;;;;;5044538;28;20107;-41
2023/10/26 13:15:39;;;;;;;6.70;4.50;;;15.70;1.00;;;;;;5049119;28;20040;-40
2023/10/26 13:18:05;;;;;;;6.35;3.95;;;15.30;1.00;;;;;;5044970;28;20053;-40
2023/10/26 13:20:31;;;;;;;6.55;4.25;;;;;;;;;;5032658;28;20423;-40
2023/10/26 13:22:57;;;;;;;6.90;4.25;;;16.00;1.00;;;;;;5046442;28;20041;-41
2023/10/26 13:25:24;;;;;;;6.85;4.18;;;15.90;1.00;;;;;;5042368;28;20048;-40
2023/10/26 13:27:50;;;;;;;6.57;4.35;;;15.90;1.00;;;;;;5045166;28;20060;-40